Time;durP1;ratioP1;P1;durP2;ratioP2;P2;SDS_P1;SDS_P2;PMS_P1;PMS_P2;Temp;Humidity;BMP_temperature;BMP_pressure;BME280_temperature;BME280_humidity;BME280_pressure;Samples;Min_cycle;Max_cycle;Signal;HPM_P1;HPM_P2
2022/03/02 00:01:45;;;;;;;17.52;8.60;;;-0.70;99.90;;;-1.59;77.50;97993.31;4966850;28;20030;-82
2022/03/02 00:04:10;;;;;;;18.42;8.77;;;-0.60;99.90;;;-1.67;77.56;97985.41;4962914;28;20539;-82
2022/03/02 00:06:36;;;;;;;15.05;8.57;;;-0.60;99.90;;;-1.58;77.62;98006.28;4960592;28;20088;-82
2022/03/02 00:09:03;;;;;;;20.02;8.95;;;-0.60;99.90;;;-1.51;78.60;98017.63;4981634;28;20042;-82
2022/03/02 00:11:29;;;;;;;16.38;8.20;;;-0.60;99.90;;;-1.72;78.67;97981.88;4964786;28;20030;-83
2022/03/02 00:13:55;;;;;;;15.32;8.50;;;-0.60;99.90;;;-1.62;77.34;97980.31;4964550;28;20318;-82
2022/03/02 00:16:24;;;;;;;16.95;9.05;;;-0.60;99.90;;;-1.48;77.24;97985.78;4964889;28;20026;-82
2022/03/02 00:18:50;;;;;;;14.13;8.13;;;-0.50;99.90;;;-1.45;77.76;97970.34;4947450;28;20117;-82
2022/03/02 00:21:16;;;;;;;15.32;8.82;;;-0.40;99.90;;;-1.40;78.09;97963.50;4959314;28;20034;-82
2022/03/02 00:23:42;;;;;;;14.63;8.25;;;-0.40;99.90;;;-1.35;77.99;97972.22;4956562;28;20035;-82
2022/03/02 00:26:09;;;;;;;14.27;7.97;;;-0.30;99.90;;;-1.27;76.78;97964.63;4974380;28;20038;-82
2022/03/02 00:28:35;;;;;;;14.93;8.25;;;-0.20;99.90;;;-1.19;76.79;97971.69;4960410;28;20306;-82
2022/03/02 00:31:01;;;;;;;13.88;7.63;;;-0.20;99.90;;;-1.27;77.08;97939.63;4938962;28;20415;-82
2022/03/02 00:33:26;;;;;;;13.20;7.40;;;-0.10;99.90;;;-1.05;77.37;97964.16;4978227;28;20044;-82
2022/03/02 00:35:52;;;;;;;13.13;8.23;;;0.00;99.90;;;-1.02;77.47;97961.66;4968258;28;20054;-80
2022/03/02 00:38:18;;;;;;;14.80;8.55;;;0.00;99.90;;;-0.89;77.07;97972.22;4997670;28;20069;-81
2022/03/02 00:40:44;;;;;;;15.07;8.32;;;0.00;99.90;;;-1.01;77.13;97958.19;4967156;28;20061;-82
2022/03/02 00:43:10;;;;;;;14.10;7.80;;;0.10;99.90;;;-0.87;77.67;97975.72;4948534;28;20239;-81
2022/03/02 00:45:37;;;;;;;19.60;9.10;;;0.10;99.90;;;-0.94;77.18;97943.66;4964693;28;20093;-82
2022/03/02 00:48:05;;;;;;;13.55;8.23;;;0.20;99.90;;;-0.91;76.48;97953.19;4958501;28;20058;-82
2022/03/02 00:50:31;;;;;;;13.32;7.90;;;0.20;99.90;;;-0.66;76.30;97988.16;4957861;28;20379;-82
2022/03/02 00:52:58;;;;;;;15.27;8.77;;;0.20;99.90;;;-0.70;76.26;97973.38;4962919;28;20104;-82
2022/03/02 00:55:25;;;;;;;17.58;8.55;;;0.30;99.90;;;-0.64;76.61;97989.06;4967436;28;20089;-81
2022/03/02 00:57:51;;;;;;;19.08;9.45;;;0.20;99.90;;;-0.66;77.33;97978.66;4966816;28;20046;-81
2022/03/02 01:00:18;;;;;;;18.75;7.85;;;0.30;99.90;;;-0.62;77.39;97967.50;4953085;28;20030;-82
2022/03/02 01:02:46;;;;;;;16.33;7.97;;;0.20;99.90;;;-0.62;76.62;97967.50;4983684;28;20968;-82
2022/03/02 01:05:12;;;;;;;13.30;8.15;;;0.30;99.90;;;-0.73;76.05;97942.28;4965259;28;20041;-81
2022/03/02 01:07:39;;;;;;;13.32;7.35;;;0.30;99.90;;;-0.70;74.80;97953.56;4966955;28;20030;-81
2022/03/02 01:10:07;;;;;;;15.02;7.47;;;0.30;99.90;;;-0.87;73.81;97918.75;4975929;28;20434;-81
2022/03/02 01:12:33;;;;;;;12.77;7.13;;;0.30;99.90;;;-0.72;73.35;97947.47;4986069;28;20037;-81
2022/03/02 01:14:59;;;;;;;12.23;7.40;;;0.30;99.90;;;-0.69;72.46;97955.28;4990464;28;20093;-81
2022/03/02 01:17:25;;;;;;;13.38;7.38;;;0.30;99.90;;;-0.68;72.70;97956.16;4973625;28;20134;-82
2022/03/02 01:19:51;;;;;;;13.50;7.18;;;0.20;99.90;;;-0.66;72.66;97960.53;4953288;28;20117;-82
2022/03/02 01:22:17;;;;;;;14.00;8.00;;;0.30;99.90;;;-0.78;72.44;97956.00;4988797;28;20041;-81
2022/03/02 01:24:44;;;;;;;13.00;8.02;;;0.20;99.90;;;-0.72;72.45;97962.13;4971576;28;20126;-82
2022/03/02 01:27:09;;;;;;;14.32;7.95;;;0.20;99.90;;;-0.75;72.68;97964.66;4974627;28;20033;-81
2022/03/02 01:29:35;;;;;;;13.65;8.05;;;0.10;99.90;;;-1.05;73.48;97909.81;4973227;28;20431;-81
2022/03/02 01:32:04;;;;;;;13.75;8.80;;;0.10;99.90;;;-0.86;74.14;97943.78;4976490;28;20542;-81
2022/03/02 01:34:30;;;;;;;14.52;7.90;;;0.10;99.90;;;-0.80;73.99;97957.69;4989776;28;20084;-81
2022/03/02 01:36:56;;;;;;;12.25;7.55;;;0.10;99.90;;;-0.85;73.24;97945.53;4968512;28;20563;-81
2022/03/02 01:39:22;;;;;;;12.48;7.55;;;0.10;99.90;;;-0.95;72.97;97931.56;4968390;28;20480;-81
2022/03/02 01:41:48;;;;;;;14.32;7.80;;;0.00;99.90;;;-0.88;72.74;97942.88;4950719;28;20504;-80
2022/03/02 01:44:13;;;;;;;13.75;7.68;;;0.00;99.90;;;-0.97;73.00;97926.34;4979196;28;20803;-81
2022/03/02 01:46:39;;;;;;;13.10;8.50;;;0.00;99.90;;;-0.98;73.38;97932.38;4963135;28;20121;-80
2022/03/02 01:49:06;;;;;;;13.02;7.35;;;0.00;99.90;;;-1.07;74.43;97923.59;4969497;28;20062;-81
2022/03/02 01:51:32;;;;;;;15.80;8.32;;;-0.10;99.90;;;-1.02;75.54;97933.16;4952201;28;20476;-81
2022/03/02 01:53:58;;;;;;;13.10;8.40;;;-0.10;99.90;;;-1.06;76.68;97931.38;4946994;28;20038;-81
2022/03/02 01:56:23;;;;;;;16.83;9.20;;;-0.20;99.90;;;-1.16;77.15;97925.16;4949401;28;20096;-81
2022/03/02 01:58:49;;;;;;;13.43;8.52;;;-0.20;99.90;;;-1.31;77.22;97905.88;4966535;28;20030;-81
2022/03/02 02:01:15;;;;;;;14.65;8.25;;;-0.30;99.90;;;-1.29;77.98;97915.44;4978863;28;20093;-81
2022/03/02 02:03:42;;;;;;;17.75;8.85;;;-0.30;99.90;;;-1.28;78.25;97922.34;4978929;23;21081;-45
2022/03/02 02:06:10;;;;;;;14.70;8.32;;;-0.40;99.90;;;-1.32;78.69;97901.56;4995327;28;20049;-45
2022/03/02 02:08:36;;;;;;;14.68;7.88;;;-0.40;99.90;;;-1.39;79.21;97906.63;4996861;28;20495;-45
2022/03/02 02:11:03;;;;;;;14.90;8.60;;;-0.50;99.90;;;-1.42;79.36;97898.81;4994306;28;20042;-47
2022/03/02 02:13:32;;;;;;;17.33;9.07;;;-0.50;99.90;;;-1.47;80.05;97890.09;4989381;28;20054;-42
2022/03/02 02:15:57;;;;;;;15.20;8.57;;;-0.50;99.90;;;-1.48;80.77;97887.47;4983431;28;20316;-47
2022/03/02 02:18:23;;;;;;;16.50;8.93;;;-0.60;99.90;;;-1.56;80.99;97885.63;4963274;28;20857;-46
2022/03/02 02:20:49;;;;;;;16.08;8.40;;;-0.60;99.90;;;-1.57;81.77;97883.00;4982668;28;20127;-47
2022/03/02 02:23:15;;;;;;;14.73;8.40;;;-0.70;99.90;;;-1.64;82.15;97892.34;4981360;28;20038;-47
2022/03/02 02:25:41;;;;;;;13.63;8.52;;;-0.70;99.90;;;-1.73;82.91;97880.09;4986023;28;20088;-46
2022/03/02 02:28:12;;;;;;;15.98;8.32;;;-0.80;99.90;;;-1.79;83.23;97882.59;4992027;28;20061;-46
2022/03/02 02:30:39;;;;;;;16.92;9.13;;;-0.80;99.90;;;-1.84;83.20;97876.44;4988998;28;20117;-45
2022/03/02 02:33:05;;;;;;;18.08;9.57;;;-0.90;99.90;;;-1.88;83.82;97866.00;4987941;28;20050;-47
2022/03/02 02:35:33;;;;;;;20.85;10.13;;;-1.00;99.90;;;-1.96;84.36;97863.28;4991600;28;20085;-45
2022/03/02 02:37:59;;;;;;;15.07;8.43;;;-1.00;99.90;;;-2.15;84.88;97836.22;4993352;28;20022;-47
2022/03/02 02:40:27;;;;;;;16.15;9.30;;;-1.10;99.90;;;-2.15;85.34;97846.53;4989106;28;20586;-45
2022/03/02 02:42:53;;;;;;;17.83;9.52;;;-1.20;99.90;;;-2.15;85.49;97850.00;4990515;28;20109;-44
2022/03/02 02:45:22;;;;;;;19.08;9.55;;;-1.20;99.90;;;-2.20;85.97;97843.84;4990330;28;20168;-43
2022/03/02 02:47:55;;;;;;;15.50;9.02;;;-1.30;99.90;;;-2.23;86.49;97853.25;4989420;28;20034;-44
2022/03/02 02:50:26;;;;;;;15.63;8.85;;;-1.30;99.90;;;-2.28;86.53;97855.72;4988027;28;20273;-44
2022/03/02 02:52:54;;;;;;;15.18;8.65;;;-1.40;99.90;;;-2.34;86.23;97861.66;4990018;28;20042;-44
2022/03/02 02:55:22;;;;;;;17.75;9.40;;;-1.40;99.90;;;-2.29;85.32;97868.66;4991272;28;20305;-45
2022/03/02 02:57:48;;;;;;;14.90;8.90;;;-1.40;99.90;;;-2.34;84.90;97868.53;4978529;28;20144;-43
2022/03/02 03:00:19;;;;;;;15.70;9.15;;;-1.40;99.90;;;-2.31;84.86;97872.06;4980183;28;20105;-46
2022/03/02 03:02:48;;;;;;;16.92;8.23;;;-1.40;99.90;;;-2.32;84.79;97872.00;4978048;28;20026;-41
2022/03/02 03:05:17;;;;;;;15.10;9.13;;;-1.40;99.90;;;-2.28;85.37;97873.81;4974917;28;20705;-46
2022/03/02 03:07:45;;;;;;;14.57;9.10;;;-1.40;99.90;;;-2.29;85.89;97871.22;4983599;28;20387;-44
2022/03/02 03:10:12;;;;;;;14.07;8.50;;;-1.40;99.90;;;-2.34;85.99;97866.81;4979404;28;20077;-45
2022/03/02 03:12:38;;;;;;;16.83;9.00;;;-1.40;99.90;;;-2.33;86.49;97863.41;4982007;28;20034;-46
2022/03/02 03:15:07;;;;;;;16.67;8.50;;;-1.40;99.90;;;-2.34;85.74;97865.94;4978512;28;20038;-46
2022/03/02 03:17:33;;;;;;;16.27;8.75;;;-1.40;99.90;;;-2.34;85.36;97865.94;4979126;28;20040;-43
2022/03/02 03:19:59;;;;;;;14.07;8.68;;;-1.40;99.90;;;-2.34;85.88;97869.41;4975199;28;20032;-43
2022/03/02 03:22:25;;;;;;;18.23;8.52;;;-1.40;99.90;;;-2.39;86.02;97867.56;4972797;28;20890;-46
2022/03/02 03:24:51;;;;;;;16.85;8.73;;;-1.40;99.90;;;-2.39;86.30;97873.59;4975511;28;20034;-45
2022/03/02 03:27:16;;;;;;;19.23;9.65;;;-1.50;99.90;;;-2.43;87.14;97858.88;4977520;28;20030;-45
2022/03/02 03:29:42;;;;;;;16.65;9.65;;;-1.50;99.90;;;-2.45;87.64;97852.81;4981246;28;20596;-46
2022/03/02 03:32:08;;;;;;;16.67;9.60;;;-1.50;99.90;;;-2.45;87.92;97857.09;4975420;28;20038;-45
2022/03/02 03:34:34;;;;;;;16.27;9.35;;;-1.50;99.90;;;-2.49;88.43;97848.41;4977383;28;20070;-43
2022/03/02 03:37:00;;;;;;;17.60;8.82;;;-1.50;99.90;;;-2.60;88.67;97845.59;4980899;28;20578;-47
2022/03/02 03:39:27;;;;;;;17.73;9.20;;;-1.60;99.90;;;-2.57;88.99;97850.81;4978245;28;20057;-44
2022/03/02 03:41:55;;;;;;;18.13;9.15;;;-1.60;99.90;;;-2.59;89.07;97855.06;4976721;28;20034;-43
2022/03/02 03:44:22;;;;;;;17.92;9.55;;;-1.60;99.90;;;-2.59;89.45;97851.63;4976648;28;20531;-42
2022/03/02 03:46:48;;;;;;;19.25;9.07;;;-1.70;99.90;;;-2.61;90.31;97854.16;4956114;28;20029;-46
2022/03/02 03:49:13;;;;;;;17.30;9.35;;;-1.70;99.90;;;-2.64;90.71;97848.94;4970693;28;20044;-46
2022/03/02 03:51:43;;;;;;;17.73;9.10;;;-1.70;99.90;;;-2.66;90.78;97848.03;4973008;28;20496;-45
2022/03/02 03:54:09;;;;;;;15.20;8.90;;;-1.70;99.90;;;-2.68;90.72;97847.13;4974721;28;22017;-46
2022/03/02 03:56:36;;;;;;;17.90;9.13;;;-1.70;99.90;;;-2.71;90.89;97847.03;4977779;28;20026;-44
2022/03/02 03:59:02;;;;;;;18.33;9.55;;;-1.70;99.90;;;-2.74;90.88;97844.41;4979260;28;20030;-44
2022/03/02 04:01:28;;;;;;;17.02;9.40;;;-1.70;99.90;;;-2.72;91.48;97848.78;4976078;28;20507;-46
2022/03/02 04:03:54;;;;;;;15.90;9.80;;;-1.70;99.90;;;-2.74;91.48;97840.13;4974728;28;20117;-45
2022/03/02 04:06:20;;;;;;;18.38;9.10;;;-1.80;99.90;;;-2.76;91.46;97843.53;4977756;28;20140;-44
2022/03/02 04:08:46;;;;;;;17.17;8.77;;;-1.70;99.90;;;-2.77;91.66;97839.19;4986646;28;20484;-45
2022/03/02 04:11:12;;;;;;;17.52;9.10;;;-1.80;99.90;;;-2.77;91.54;97837.47;4985695;28;20062;-45
2022/03/02 04:13:38;;;;;;;16.33;9.52;;;-1.80;99.90;;;-2.81;91.52;97835.66;4987863;28;20106;-46
2022/03/02 04:16:05;;;;;;;18.25;9.07;;;-1.70;99.90;;;-2.76;91.58;97836.63;4971203;28;20030;-42
2022/03/02 04:18:31;;;;;;;20.55;9.73;;;-1.70;99.90;;;-2.77;91.85;97834.88;4985857;28;20034;-45
2022/03/02 04:20:58;;;;;;;16.02;8.98;;;-1.80;99.90;;;-2.77;92.35;97837.47;4982777;28;20041;-43
2022/03/02 04:23:24;;;;;;;18.20;9.18;;;-1.80;99.90;;;-2.79;92.38;97833.97;4971588;28;24891;-46
2022/03/02 04:25:50;;;;;;;18.13;9.00;;;-1.80;99.90;;;-2.78;92.45;97832.25;4972764;28;20376;-44
2022/03/02 04:28:16;;;;;;;13.50;8.30;;;-1.80;99.90;;;-2.93;92.18;97807.84;4959956;28;20041;-44
2022/03/02 04:30:42;;;;;;;13.27;8.57;;;-1.80;99.90;;;-2.78;91.93;97827.09;4971096;28;20046;-39
2022/03/02 04:33:07;;;;;;;16.33;9.35;;;-1.80;99.90;;;-2.79;92.02;97827.94;4978820;28;21414;-39
2022/03/02 04:35:34;;;;;;;17.42;9.57;;;-1.80;99.90;;;-2.78;91.86;97816.75;4973140;28;20030;-42
2022/03/02 04:38:01;;;;;;;17.33;9.48;;;-1.80;99.90;;;-2.80;91.64;97815.88;4965368;28;20788;-43
2022/03/02 04:40:27;;;;;;;17.75;9.55;;;-1.80;99.90;;;-2.82;92.22;97810.66;4970903;28;20034;-43
2022/03/02 04:42:54;;;;;;;15.20;8.85;;;-1.90;99.90;;;-2.86;92.22;97801.13;4967302;28;20038;-46
2022/03/02 04:45:25;;;;;;;16.02;9.15;;;-1.90;99.90;;;-2.86;92.56;97798.53;4974445;28;20271;-44
2022/03/02 04:47:52;;;;;;;18.95;9.80;;;-1.90;99.90;;;-2.89;92.22;97794.19;4966698;28;20034;-46
2022/03/02 04:50:21;;;;;;;17.15;9.82;;;-1.90;99.90;;;-2.89;92.48;97794.19;4967640;28;20057;-44
2022/03/02 04:52:51;;;;;;;22.20;10.15;;;-1.90;99.90;;;-2.94;92.65;97785.47;4965195;28;20046;-47
2022/03/02 04:55:18;;;;;;;19.95;9.95;;;-1.90;99.90;;;-2.93;92.47;97788.91;4965861;28;20693;-42
2022/03/02 04:57:59;;;;;;;17.60;9.55;;;-1.90;99.90;;;-2.89;91.81;97791.59;4964774;28;20038;-42
2022/03/02 05:00:29;;;;;;;17.90;9.27;;;-1.80;99.90;;;-2.86;91.68;97800.25;4966011;28;20030;-46
2022/03/02 05:02:57;;;;;;;16.27;9.05;;;-1.80;99.90;;;-2.89;91.43;97781.28;4965292;28;20061;-42
2022/03/02 05:05:24;;;;;;;18.17;8.52;;;-1.80;99.90;;;-2.85;91.19;97792.56;4966481;28;20523;-44
2022/03/02 05:07:51;;;;;;;18.60;9.48;;;-1.80;99.90;;;-2.89;91.51;97780.38;4965815;28;20420;-47
2022/03/02 05:10:19;;;;;;;18.27;9.02;;;-1.80;99.90;;;-2.89;91.71;97794.19;4966673;28;20030;-42
2022/03/02 05:12:46;;;;;;;16.88;9.00;;;-1.80;99.90;;;-2.88;91.47;97793.34;4968462;28;20061;-43
2022/03/02 05:15:13;;;;;;;16.80;8.68;;;-1.80;99.90;;;-2.85;91.30;97789.06;4964607;28;20468;-46
2022/03/02 05:17:40;;;;;;;19.00;8.90;;;-1.80;99.90;;;-2.85;91.28;97789.97;4963806;28;20038;-44
2022/03/02 05:20:09;;;;;;;15.95;9.30;;;-1.80;99.90;;;-2.84;91.13;97786.53;4965861;28;20034;-43
2022/03/02 05:22:35;;;;;;;16.33;8.88;;;-1.80;99.90;;;-2.89;90.87;97767.47;4971153;28;20069;-44
2022/03/02 05:25:04;;;;;;;16.48;9.45;;;-1.80;99.90;;;-2.77;90.90;97779.81;5006045;23;20851;-40
2022/03/02 05:27:30;;;;;;;17.25;8.80;;;-1.70;99.90;;;-2.75;90.62;97783.28;5004542;28;20049;-42
2022/03/02 05:29:55;;;;;;;15.10;9.13;;;-1.70;99.90;;;-2.77;90.66;97774.63;4998988;28;20036;-38
2022/03/02 05:32:21;;;;;;;17.40;9.07;;;-1.70;99.90;;;-2.71;90.50;97779.91;5003043;28;20033;-44
2022/03/02 05:34:47;;;;;;;17.27;9.27;;;-1.70;99.90;;;-2.75;90.49;97772.97;4995957;28;20117;-37
2022/03/02 05:37:13;;;;;;;17.73;9.63;;;-1.70;99.90;;;-2.66;90.36;97785.19;4972518;28;20574;-42
2022/03/02 05:39:38;;;;;;;16.15;9.40;;;-1.60;99.90;;;-2.69;90.36;97775.69;4986537;28;20034;-36
2022/03/02 05:42:05;;;;;;;16.10;9.15;;;-1.60;99.90;;;-2.61;90.72;97778.41;4990724;28;20113;-40
2022/03/02 05:44:31;;;;;;;16.35;9.00;;;-1.60;99.90;;;-2.59;90.67;97779.31;4986993;28;20092;-41
2022/03/02 05:46:57;;;;;;;16.63;8.90;;;-1.60;99.90;;;-2.56;90.31;97775.09;4988969;28;20037;-41
2022/03/02 05:49:23;;;;;;;17.25;9.65;;;-1.50;99.90;;;-2.56;90.65;97767.34;4987596;28;20034;-45
2022/03/02 05:51:48;;;;;;;19.63;10.55;;;-1.50;99.90;;;-2.50;90.46;97761.44;4985125;28;20037;-38
2022/03/02 05:54:14;;;;;;;15.77;9.07;;;-1.50;99.90;;;-2.43;90.21;97772.75;4984910;28;20569;-37
2022/03/02 05:56:41;;;;;;;18.95;9.07;;;-1.40;99.90;;;-2.34;89.92;97781.56;4988504;28;20037;-41
2022/03/02 05:59:10;;;;;;;18.58;9.65;;;-1.40;99.90;;;-2.25;89.64;97775.72;4989177;28;20227;-38
2022/03/02 06:01:37;;;;;;;20.77;8.55;;;-1.30;99.90;;;-2.20;89.30;97774.09;4986999;28;20088;-38
2022/03/02 06:04:05;;;;;;;17.45;9.07;;;-1.30;99.90;;;-2.28;88.76;97742.03;4988177;28;20108;-38
2022/03/02 06:06:32;;;;;;;18.45;9.25;;;-1.20;99.90;;;-2.11;88.44;97763.06;4988503;28;20416;-37
2022/03/02 06:09:00;;;;;;;18.17;9.40;;;-1.10;99.90;;;-1.98;88.48;97774.50;5001875;28;20037;-44
2022/03/02 06:11:27;;;;;;;16.30;10.35;;;-1.00;99.90;;;-1.98;88.55;97762.44;4982179;28;20121;-39
2022/03/02 06:13:54;;;;;;;19.50;9.27;;;-1.00;99.90;;;-1.84;87.75;97769.59;4999492;28;20113;-40
2022/03/02 06:16:20;;;;;;;17.58;8.60;;;-0.90;99.90;;;-1.82;86.96;97762.72;5000910;28;20124;-44
2022/03/02 06:18:46;;;;;;;17.80;9.95;;;-0.80;99.90;;;-1.68;86.13;97778.50;5000338;28;20119;-35
2022/03/02 06:21:23;;;;;;;16.58;8.85;;;-0.70;99.90;;;-1.63;85.76;97769.97;4998784;28;20037;-40
2022/03/02 06:23:49;;;;;;;17.77;8.90;;;-0.70;99.90;;;-1.53;85.51;97763.22;4996555;28;20118;-36
2022/03/02 06:26:15;;;;;;;16.33;8.93;;;-0.60;99.90;;;-1.44;84.92;97759.91;4997535;28;20041;-38
2022/03/02 06:28:41;;;;;;;16.52;9.13;;;-0.50;99.90;;;-1.36;84.63;97759.19;5000305;28;20105;-36
2022/03/02 06:31:07;;;;;;;14.50;8.52;;;-0.50;99.90;;;-1.31;84.57;97758.38;4992404;28;20095;-38
2022/03/02 06:33:32;;;;;;;20.45;8.60;;;-0.40;99.90;;;-1.22;83.27;97767.19;4988807;28;20084;-39
2022/03/02 06:35:58;;;;;;;23.02;9.57;;;-0.30;99.90;;;-1.06;82.14;97783.81;4987505;28;20754;-45
2022/03/02 06:38:24;;;;;;;18.65;9.98;;;-0.20;99.90;;;-1.00;81.24;97783.91;4986339;28;20266;-37
2022/03/02 06:41:00;;;;;;;18.63;8.85;;;-0.10;99.90;;;-0.92;81.17;97776.22;4991579;28;20038;-37
2022/03/02 06:43:27;;;;;;;18.65;8.95;;;0.00;99.90;;;-0.85;80.59;97779.78;4990604;28;20337;-36
2022/03/02 06:46:05;;;;;;;19.00;9.38;;;0.10;99.90;;;-0.79;79.63;97779.84;4987102;28;20207;-42
2022/03/02 06:49:03;;;;;;;15.65;8.93;;;0.10;99.90;;;-0.71;78.91;97783.44;4972579;28;20096;-38
2022/03/02 06:51:31;;;;;;;15.75;8.30;;;0.20;99.90;;;-0.63;78.47;97768.00;4972665;28;20034;-38
2022/03/02 06:53:58;;;;;;;21.63;9.77;;;0.30;99.90;;;-0.50;77.91;97779.38;4990255;28;20379;-42
2022/03/02 06:56:27;;;;;;;17.15;9.05;;;0.40;99.90;;;-0.40;77.35;97779.50;4966224;28;20567;-37
2022/03/02 06:58:55;;;;;;;17.25;8.73;;;0.50;99.90;;;-0.41;77.06;97769.16;4972212;28;20053;-40
2022/03/02 07:01:32;;;;;;;16.10;8.90;;;0.50;99.90;;;-0.18;76.10;97782.38;4986603;28;20030;-40
2022/03/02 07:04:01;;;;;;;22.40;9.95;;;0.70;99.90;;;-0.07;75.74;97777.31;4990403;28;20469;-37
2022/03/02 07:06:29;;;;;;;17.77;8.95;;;0.80;99.90;;;0.08;75.27;97781.81;4987725;28;20034;-43
2022/03/02 07:08:56;;;;;;;16.05;8.77;;;0.90;99.90;;;0.15;74.41;97783.63;4989630;28;20208;-43
2022/03/02 07:11:23;;;;;;;20.17;9.55;;;1.00;99.90;;;0.27;73.96;97785.44;4986378;28;20069;-38
2022/03/02 07:13:50;;;;;;;16.08;9.88;;;1.10;99.90;;;0.24;73.39;97772.47;4984606;28;20040;-44
2022/03/02 07:16:18;;;;;;;14.68;8.10;;;1.20;99.90;;;0.35;76.08;97791.59;4987074;28;20041;-38
2022/03/02 07:18:44;;;;;;;17.80;9.13;;;1.20;99.90;;;0.41;76.58;97791.63;4987798;28;20029;-40
2022/03/02 07:21:14;;;;;;;15.82;8.25;;;1.20;99.90;;;0.46;76.81;97795.16;4983181;28;20312;-42
2022/03/02 07:23:54;;;;;;;13.65;8.82;;;1.30;99.90;;;0.56;75.27;97789.19;4994454;28;20042;-41
2022/03/02 07:26:23;;;;;;;17.02;9.73;;;1.40;99.90;;;0.65;74.20;97792.75;4995432;28;20038;-41
2022/03/02 07:28:49;;;;;;;18.58;9.45;;;1.50;99.90;;;0.77;73.90;97795.41;4996777;28;20045;-40
2022/03/02 07:31:19;;;;;;;14.98;8.30;;;1.60;99.90;;;0.89;74.44;97786.88;4983285;28;20597;-43
2022/03/02 07:33:46;;;;;;;14.30;9.02;;;1.70;99.90;;;1.00;73.95;97789.53;4988586;28;20167;-37
2022/03/02 07:36:12;;;;;;;15.73;8.73;;;1.90;99.90;;;1.11;73.49;97790.47;4968983;28;20030;-42
2022/03/02 07:38:39;;;;;;;16.48;9.50;;;1.90;99.90;;;1.25;72.58;97785.38;4995047;28;20474;-40
2022/03/02 07:41:10;;;;;;;18.20;9.93;;;2.10;99.90;;;1.33;71.45;97778.50;4987377;28;20034;-42
2022/03/02 07:43:38;;;;;;;17.17;9.75;;;2.10;99.90;;;1.39;70.56;97781.13;4985870;28;20430;-37
2022/03/02 07:46:09;;;;;;;17.15;9.85;;;2.20;99.90;;;1.52;69.11;97790.72;4980658;28;20037;-40
2022/03/02 07:48:37;;;;;;;19.60;10.13;;;2.30;99.90;;;1.57;68.43;97793.34;4989436;28;21222;-35
2022/03/02 07:51:07;;;;;;;22.33;10.65;;;2.40;99.90;;;1.65;67.46;97791.69;4986364;28;20692;-39
2022/03/02 07:53:48;;;;;;;22.52;11.30;;;2.50;99.90;;;1.72;66.82;97792.56;4984886;28;20088;-41
2022/03/02 07:56:15;;;;;;;17.75;9.18;;;2.50;99.90;;;1.83;68.30;97797.78;4985931;28;20156;-36
2022/03/02 07:58:42;;;;;;;13.45;7.75;;;2.60;99.90;;;1.81;68.88;97787.41;4983659;28;20725;-44
2022/03/02 08:01:12;;;;;;;18.35;10.20;;;2.70;99.90;;;1.94;66.79;97788.31;4990220;28;20040;-39
2022/03/02 08:03:39;;;;;;;18.02;10.50;;;2.70;99.90;;;1.96;64.64;97778.78;4984574;28;20038;-41
2022/03/02 08:06:07;;;;;;;19.42;10.20;;;2.80;99.90;;;2.08;64.64;97793.56;4986047;28;20041;-37
2022/03/02 08:08:35;;;;;;;20.58;10.75;;;2.80;99.90;;;2.18;62.97;97789.25;4992241;28;20112;-43
2022/03/02 08:11:02;;;;;;;14.38;9.15;;;3.00;99.90;;;2.36;63.24;97798.84;4995059;28;20030;-37
2022/03/02 08:13:32;;;;;;;23.40;10.02;;;3.10;99.90;;;2.54;62.56;97793.66;4997979;28;20077;-36
2022/03/02 08:15:59;;;;;;;18.63;9.57;;;3.30;99.90;;;2.71;62.11;97796.28;4995075;28;20038;-39
2022/03/02 08:18:25;;;;;;;16.02;9.30;;;3.50;99.90;;;2.97;61.32;97800.63;4996807;28;20534;-38
2022/03/02 08:20:53;;;;;;;20.23;10.50;;;3.70;99.90;;;3.03;59.08;97804.13;4998008;28;20362;-40
2022/03/02 08:23:21;;;;;;;15.55;9.63;;;3.80;99.90;;;3.13;59.01;97810.16;4995136;28;20582;-42
2022/03/02 08:25:52;;;;;;;20.08;10.55;;;3.90;99.90;;;3.20;58.62;97798.00;4995146;28;20096;-39
2022/03/02 08:28:20;;;;;;;23.90;11.23;;;4.00;99.90;;;3.32;57.72;97808.44;4995563;28;20049;-43
2022/03/02 08:30:50;;;;;;;21.05;10.75;;;4.10;99.90;;;3.46;57.45;97794.47;4975737;28;20852;-43
2022/03/02 08:33:27;;;;;;;24.52;11.10;;;4.20;99.90;;;3.51;56.94;97795.34;4995044;28;20053;-39
2022/03/02 08:35:54;;;;;;;20.48;9.52;;;4.20;99.90;;;3.67;57.00;97796.16;5000105;28;20034;-42
2022/03/02 08:38:22;;;;;;;21.35;11.25;;;4.30;99.90;;;3.77;55.99;97793.53;5000638;28;20029;-45
2022/03/02 08:40:48;;;;;;;15.70;10.05;;;4.50;99.70;;;3.80;55.78;97774.38;4995806;28;20034;-41
2022/03/02 08:43:15;;;;;;;22.85;11.20;;;4.60;99.30;;;3.88;54.29;97782.19;4998091;28;20140;-41
2022/03/02 08:45:48;;;;;;;21.88;10.85;;;4.60;98.60;;;4.01;54.89;97786.47;4994296;28;20034;-40
2022/03/02 08:48:19;;;;;;;18.52;9.93;;;4.70;98.60;;;4.14;54.70;97784.66;5001561;28;20531;-40
2022/03/02 08:50:46;;;;;;;20.77;11.68;;;4.80;98.50;;;4.26;53.90;97784.59;4997022;28;20121;-44
2022/03/02 08:53:15;;;;;;;17.92;10.00;;;4.90;98.00;;;4.39;54.33;97775.78;4995419;28;20033;-38
2022/03/02 08:55:43;;;;;;;14.15;9.88;;;5.00;98.00;;;4.52;54.21;97773.09;4978324;28;20408;-43
2022/03/02 08:58:10;;;;;;;22.95;11.10;;;5.20;98.00;;;4.50;52.96;97769.66;4994448;28;20412;-40
2022/03/02 09:00:36;;;;;;;21.30;11.30;;;5.20;97.00;;;4.51;52.62;97774.88;4996328;28;20109;-48
2022/03/02 09:03:03;;;;;;;19.23;10.80;;;5.20;96.70;;;4.54;52.08;97773.97;4997052;28;20072;-44
2022/03/02 09:05:29;;;;;;;19.13;10.40;;;5.30;96.60;;;4.62;52.30;97769.56;4995199;28;20026;-43
2022/03/02 09:07:56;;;;;;;18.23;11.00;;;5.30;96.30;;;4.71;51.90;97766.88;4994380;28;20288;-41
2022/03/02 09:10:23;;;;;;;23.77;11.00;;;5.40;96.10;;;4.83;52.27;97767.66;4993318;28;20436;-44
2022/03/02 09:12:50;;;;;;;19.50;11.65;;;5.50;96.20;;;4.87;50.53;97772.84;4990843;28;20029;-46
2022/03/02 09:15:16;;;;;;;16.70;10.27;;;5.60;95.70;;;5.01;50.94;97777.97;4996215;28;20034;-43
2022/03/02 09:17:42;;;;;;;21.48;10.80;;;5.70;95.20;;;5.12;50.59;97778.72;4995477;28;20037;-38
2022/03/02 09:20:09;;;;;;;18.10;10.75;;;5.80;94.90;;;5.24;49.90;97759.47;4997479;28;20041;-42
2022/03/02 09:22:38;;;;;;;20.63;11.40;;;6.00;94.70;;;5.27;49.05;97746.31;4998187;28;20121;-44
2022/03/02 09:25:06;;;;;;;21.73;11.30;;;6.10;93.80;;;5.60;49.26;97773.03;4996349;28;20026;-42
2022/03/02 09:27:34;;;;;;;17.80;10.98;;;6.30;93.80;;;5.67;48.41;97768.56;4996914;28;20038;-44
2022/03/02 09:30:06;;;;;;;17.58;10.73;;;6.40;93.50;;;5.85;47.41;97768.38;4996168;28;20038;-43
2022/03/02 09:32:34;;;;;;;21.30;11.75;;;6.50;92.50;;;5.87;47.49;97765.75;4998404;28;20041;-41
2022/03/02 09:35:00;;;;;;;20.05;10.48;;;6.60;92.10;;;5.98;47.83;97768.25;4995545;28;20249;-39
2022/03/02 09:37:28;;;;;;;19.63;11.23;;;6.70;92.40;;;6.06;47.62;97763.78;4981078;28;20057;-42
2022/03/02 09:39:55;;;;;;;22.13;11.93;;;6.80;92.00;;;6.00;46.35;97763.88;4977007;28;20045;-42
2022/03/02 09:42:39;;;;;;;21.63;10.68;;;6.80;91.20;;;6.03;46.35;97758.56;4996243;28;20583;-42
2022/03/02 09:45:09;;;;;;;23.23;11.25;;;6.70;90.80;;;5.99;47.12;97762.13;4998720;28;20447;-41
2022/03/02 09:47:45;;;;;;;21.33;11.27;;;6.80;91.00;;;6.09;47.04;97761.97;4978990;28;20117;-42
2022/03/02 09:50:14;;;;;;;20.38;10.82;;;6.80;91.20;;;6.19;46.86;97762.75;5001152;28;20034;-43
2022/03/02 09:52:44;;;;;;;21.83;11.60;;;6.80;90.90;;;6.16;46.17;97761.91;4998161;28;20107;-43
2022/03/02 09:55:14;;;;;;;21.92;10.82;;;6.90;90.60;;;6.29;45.96;97760.84;4991889;28;20049;-40
2022/03/02 09:57:46;;;;;;;17.23;10.85;;;6.90;90.30;;;6.38;46.06;97759.84;4977081;28;20116;-38
2022/03/02 10:00:17;;;;;;;19.38;11.02;;;7.00;90.40;;;6.40;46.63;97760.69;4998136;28;20034;-37
2022/03/02 10:02:46;;;;;;;22.40;10.93;;;7.10;90.40;;;6.43;46.14;97761.50;4998601;28;20039;-42
2022/03/02 10:05:22;;;;;;;17.45;10.45;;;7.20;90.10;;;6.55;46.03;97757.84;5000270;28;20060;-40
2022/03/02 10:08:08;;;;;;;19.80;10.32;;;7.20;89.90;;;6.61;46.40;97757.75;5000352;28;20656;-46
2022/03/02 10:10:40;;;;;;;23.55;11.27;;;7.30;90.00;;;6.56;45.48;97758.72;4998192;28;20447;-40
2022/03/02 10:13:09;;;;;;;21.75;11.20;;;7.30;88.70;;;6.71;45.63;97757.59;4995084;28;20029;-41
2022/03/02 10:15:37;;;;;;;20.13;10.93;;;7.40;89.00;;;6.77;45.36;97750.50;4997540;28;20088;-42
2022/03/02 10:18:06;;;;;;;20.02;10.80;;;7.50;88.10;;;6.90;44.50;97745.94;5002972;28;20500;-41